sensor_id;sensor_type;location;lat;lon;timestamp;pressure;altitude;pressure_sealevel;temperature;humidity
53340;BME280;46212;50.258;19.062;2023-04-01T00:01:24;96778.16;;;8.92;77.84
53340;BME280;46212;50.258;19.062;2023-04-01T00:03:49;96780.34;;;8.88;78.04
53340;BME280;46212;50.258;19.062;2023-04-01T00:06:16;96782.00;;;8.75;78.54
53340;BME280;46212;50.258;19.062;2023-04-01T00:08:42;96781.28;;;8.80;78.81
53340;BME280;46212;50.258;19.062;2023-04-01T00:11:07;96785.78;;;8.77;78.81
53340;BME280;46212;50.258;19.062;2023-04-01T00:13:33;96775.25;;;8.76;78.74
53340;BME280;46212;50.258;19.062;2023-04-01T00:15:58;96771.69;;;8.70;79.12
53340;BME280;46212;50.258;19.062;2023-04-01T00:18:24;96776.72;;;8.71;79.14
53340;BME280;46212;50.258;19.062;2023-04-01T00:20:51;96775.38;;;8.61;79.28
53340;BME280;46212;50.258;19.062;2023-04-01T00:23:17;96768.69;;;8.42;80.27
53340;BME280;46212;50.258;19.062;2023-04-01T00:25:43;96765.19;;;8.41;80.18
53340;BME280;46212;50.258;19.062;2023-04-01T00:28:09;96778.25;;;8.46;80.49
53340;BME280;46212;50.258;19.062;2023-04-01T00:30:35;96776.47;;;8.43;80.51
53340;BME280;46212;50.258;19.062;2023-04-01T00:33:01;96777.22;;;8.44;80.70
53340;BME280;46212;50.258;19.062;2023-04-01T00:35:27;96768.22;;;8.43;80.82
53340;BME280;46212;50.258;19.062;2023-04-01T00:37:52;96772.47;;;8.44;80.90
53340;BME280;46212;50.258;19.062;2023-04-01T00:40:45;96778.31;;;8.52;80.72
53340;BME280;46212;50.258;19.062;2023-04-01T00:43:17;96769.34;;;8.57;80.63
53340;BME280;46212;50.258;19.062;2023-04-01T00:45:48;96774.56;;;8.55;80.91
53340;BME280;46212;50.258;19.062;2023-04-01T00:48:22;96775.03;;;8.53;80.80
53340;BME280;46212;50.258;19.062;2023-04-01T00:50:52;96765.53;;;8.49;81.14
53340;BME280;46212;50.258;19.062;2023-04-01T00:53:20;96770.22;;;8.43;81.50
53340;BME280;46212;50.258;19.062;2023-04-01T00:55:51;96773.22;;;8.45;81.61
53340;BME280;46212;50.258;19.062;2023-04-01T00:58:21;96772.09;;;8.31;82.09
53340;BME280;46212;50.258;19.062;2023-04-01T01:00:49;96772.84;;;8.32;82.76
53340;BME280;46212;50.258;19.062;2023-04-01T01:03:15;96779.19;;;8.18;83.21
53340;BME280;46212;50.258;19.062;2023-04-01T01:08:24;96778.22;;;8.21;83.34
53340;BME280;46212;50.258;19.062;2023-04-01T01:10:56;96781.00;;;8.26;83.23
53340;BME280;46212;50.258;19.062;2023-04-01T01:15:53;96781.00;;;8.26;83.45
53340;BME280;46212;50.258;19.062;2023-04-01T01:37:37;96759.44;;;8.19;84.13
53340;BME280;46212;50.258;19.062;2023-04-01T01:40:06;96743.34;;;8.12;84.16
53340;BME280;46212;50.258;19.062;2023-04-01T01:42:36;96752.50;;;8.24;83.72
53340;BME280;46212;50.258;19.062;2023-04-01T01:45:04;96755.25;;;8.24;83.70
53340;BME280;46212;50.258;19.062;2023-04-01T01:47:32;96749.56;;;8.07;84.21
53340;BME280;46212;50.258;19.062;2023-04-01T01:49:59;96744.41;;;8.15;84.39
53340;BME280;46212;50.258;19.062;2023-04-01T01:52:27;96745.63;;;8.14;84.20
53340;BME280;46212;50.258;19.062;2023-04-01T01:54:55;96750.31;;;8.08;84.59
53340;BME280;46212;50.258;19.062;2023-04-01T01:57:34;96745.19;;;7.95;84.87
53340;BME280;46212;50.258;19.062;2023-04-01T02:00:08;96747.94;;;7.95;85.16
53340;BME280;46212;50.258;19.062;2023-04-01T02:02:44;96752.94;;;7.96;85.15
53340;BME280;46212;50.258;19.062;2023-04-01T02:05:15;96759.41;;;7.93;85.30
53340;BME280;46212;50.258;19.062;2023-04-01T02:07:43;96767.13;;;7.89;85.29
53340;BME280;46212;50.258;19.062;2023-04-01T02:10:12;96760.03;;;7.83;85.70
53340;BME280;46212;50.258;19.062;2023-04-01T02:12:38;96756.69;;;7.73;85.92
53340;BME280;46212;50.258;19.062;2023-04-01T02:17:32;96761.28;;;7.82;85.99
53340;BME280;46212;50.258;19.062;2023-04-01T02:20:05;96759.28;;;7.82;85.90
53340;BME280;46212;50.258;19.062;2023-04-01T02:22:40;96757.72;;;7.76;85.89
53340;BME280;46212;50.258;19.062;2023-04-01T02:25:16;96766.63;;;7.71;86.48
53340;BME280;46212;50.258;19.062;2023-04-01T02:27:43;96766.72;;;7.76;86.17
53340;BME280;46212;50.258;19.062;2023-04-01T02:30:10;96773.03;;;7.82;85.76
53340;BME280;46212;50.258;19.062;2023-04-01T02:32:37;96771.66;;;7.72;86.01
53340;BME280;46212;50.258;19.062;2023-04-01T02:35:08;96773.56;;;7.66;86.62
53340;BME280;46212;50.258;19.062;2023-04-01T02:37:36;96776.94;;;7.76;86.41
53340;BME280;46212;50.258;19.062;2023-04-01T02:40:03;96787.28;;;7.86;85.91
53340;BME280;46212;50.258;19.062;2023-04-01T02:42:30;96784.84;;;7.88;85.86
53340;BME280;46212;50.258;19.062;2023-04-01T02:44:55;96788.25;;;7.83;85.73
53340;BME280;46212;50.258;19.062;2023-04-01T02:47:20;96781.28;;;7.82;86.21
53340;BME280;46212;50.258;19.062;2023-04-01T02:49:46;96784.53;;;7.86;86.07
53340;BME280;46212;50.258;19.062;2023-04-01T02:52:11;96789.09;;;7.89;85.89
53340;BME280;46212;50.258;19.062;2023-04-01T02:54:37;96790.75;;;8.01;85.45
53340;BME280;46212;50.258;19.062;2023-04-01T02:57:02;96785.31;;;8.07;85.21
53340;BME280;46212;50.258;19.062;2023-04-01T02:59:27;96790.03;;;8.07;84.72
53340;BME280;46212;50.258;19.062;2023-04-01T03:01:53;96786.97;;;7.99;85.09
53340;BME280;46212;50.258;19.062;2023-04-01T03:04:18;96784.22;;;7.99;85.32
53340;BME280;46212;50.258;19.062;2023-04-01T03:06:44;96792.59;;;8.10;85.11
53340;BME280;46212;50.258;19.062;2023-04-01T03:09:09;96786.31;;;8.10;84.79
53340;BME280;46212;50.258;19.062;2023-04-01T03:11:35;96785.34;;;8.13;84.58
53340;BME280;46212;50.258;19.062;2023-04-01T03:14:00;96791.88;;;8.15;84.60
53340;BME280;46212;50.258;19.062;2023-04-01T03:16:26;96788.91;;;8.19;84.05
53340;BME280;46212;50.258;19.062;2023-04-01T03:18:51;96789.63;;;8.14;84.40
53340;BME280;46212;50.258;19.062;2023-04-01T03:21:20;96792.72;;;8.21;84.63
53340;BME280;46212;50.258;19.062;2023-04-01T03:23:46;96791.53;;;8.28;84.41
53340;BME280;46212;50.258;19.062;2023-04-01T03:26:12;96793.66;;;8.18;85.32
53340;BME280;46212;50.258;19.062;2023-04-01T03:28:37;96788.72;;;8.22;85.33
53340;BME280;46212;50.258;19.062;2023-04-01T03:31:03;96794.88;;;8.12;85.63
53340;BME280;46212;50.258;19.062;2023-04-01T03:33:28;96787.78;;;8.05;85.59
53340;BME280;46212;50.258;19.062;2023-04-01T03:35:53;96788.09;;;8.13;85.90
53340;BME280;46212;50.258;19.062;2023-04-01T03:38:19;96793.59;;;8.13;86.11
53340;BME280;46212;50.258;19.062;2023-04-01T03:40:45;96794.38;;;7.93;86.46
53340;BME280;46212;50.258;19.062;2023-04-01T03:43:10;96797.06;;;8.08;86.04
53340;BME280;46212;50.258;19.062;2023-04-01T03:45:43;96793.41;;;7.96;86.30
53340;BME280;46212;50.258;19.062;2023-04-01T03:48:09;96787.84;;;7.90;86.45
53340;BME280;46212;50.258;19.062;2023-04-01T03:50:35;96787.44;;;7.97;86.50
53340;BME280;46212;50.258;19.062;2023-04-01T03:53:07;96793.50;;;8.01;86.23
53340;BME280;46212;50.258;19.062;2023-04-01T03:55:32;96787.22;;;8.01;86.14
53340;BME280;46212;50.258;19.062;2023-04-01T03:57:58;96792.47;;;7.99;86.07
53340;BME280;46212;50.258;19.062;2023-04-01T04:00:23;96791.16;;;7.94;86.55
53340;BME280;46212;50.258;19.062;2023-04-01T04:02:48;96791.72;;;7.98;86.73
53340;BME280;46212;50.258;19.062;2023-04-01T04:05:14;96793.81;;;8.09;86.12
53340;BME280;46212;50.258;19.062;2023-04-01T04:07:40;96795.13;;;8.14;86.23
53340;BME280;46212;50.258;19.062;2023-04-01T04:10:06;96793.34;;;8.11;86.21
53340;BME280;46212;50.258;19.062;2023-04-01T04:12:31;96786.63;;;8.12;86.18
53340;BME280;46212;50.258;19.062;2023-04-01T04:14:57;96792.13;;;8.12;86.22
53340;BME280;46212;50.258;19.062;2023-04-01T04:17:23;96797.88;;;8.14;86.25
53340;BME280;46212;50.258;19.062;2023-04-01T04:19:48;96795.13;;;8.14;85.97
53340;BME280;46212;50.258;19.062;2023-04-01T04:22:13;96794.09;;;8.11;86.09
53340;BME280;46212;50.258;19.062;2023-04-01T04:24:39;96790.31;;;8.09;86.17
53340;BME280;46212;50.258;19.062;2023-04-01T04:27:04;96788.31;;;8.09;86.07
53340;BME280;46212;50.258;19.062;2023-04-01T04:29:30;96790.31;;;8.09;86.32
53340;BME280;46212;50.258;19.062;2023-04-01T04:31:55;96785.56;;;8.09;86.46
53340;BME280;46212;50.258;19.062;2023-04-01T04:34:21;96791.56;;;8.08;86.33
53340;BME280;46212;50.258;19.062;2023-04-01T04:36:47;96792.72;;;8.21;85.68
53340;BME280;46212;50.258;19.062;2023-04-01T04:39:13;96786.72;;;8.23;85.63
53340;BME280;46212;50.258;19.062;2023-04-01T04:41:38;96794.75;;;8.26;85.60
53340;BME280;46212;50.258;19.062;2023-04-01T04:44:04;96782.25;;;8.25;85.63
53340;BME280;46212;50.258;19.062;2023-04-01T04:46:30;96790.38;;;8.34;85.31
53340;BME280;46212;50.258;19.062;2023-04-01T04:48:55;96791.06;;;8.29;85.03
53340;BME280;46212;50.258;19.062;2023-04-01T04:51:21;96790.31;;;8.29;85.30
53340;BME280;46212;50.258;19.062;2023-04-01T04:53:47;96784.66;;;8.38;85.06
53340;BME280;46212;50.258;19.062;2023-04-01T04:56:17;96795.50;;;8.47;84.72
53340;BME280;46212;50.258;19.062;2023-04-01T04:58:43;96793.53;;;8.53;84.34
53340;BME280;46212;50.258;19.062;2023-04-01T05:01:11;96795.78;;;8.49;84.46
53340;BME280;46212;50.258;19.062;2023-04-01T05:03:37;96794.31;;;8.53;84.64
53340;BME280;46212;50.258;19.062;2023-04-01T05:06:04;96803.09;;;8.58;84.12
53340;BME280;46212;50.258;19.062;2023-04-01T05:08:30;96801.00;;;8.73;83.44
53340;BME280;46212;50.258;19.062;2023-04-01T05:10:56;96806.44;;;8.67;83.73
53340;BME280;46212;50.258;19.062;2023-04-01T05:13:21;96806.81;;;8.80;83.40
53340;BME280;46212;50.258;19.062;2023-04-01T05:15:47;96808.38;;;8.87;82.97
53340;BME280;46212;50.258;19.062;2023-04-01T05:18:12;96800.41;;;8.94;82.57
53340;BME280;46212;50.258;19.062;2023-04-01T05:20:37;96797.16;;;8.90;82.68
53340;BME280;46212;50.258;19.062;2023-04-01T05:23:03;96809.72;;;8.97;82.46
53340;BME280;46212;50.258;19.062;2023-04-01T05:25:28;96805.78;;;9.03;82.36
53340;BME280;46212;50.258;19.062;2023-04-01T05:27:54;96810.78;;;9.05;82.16
53340;BME280;46212;50.258;19.062;2023-04-01T05:30:20;96801.31;;;9.12;81.82
53340;BME280;46212;50.258;19.062;2023-04-01T05:32:46;96810.81;;;9.11;81.57
53340;BME280;46212;50.258;19.062;2023-04-01T05:35:11;96805.84;;;9.15;81.86
53340;BME280;46212;50.258;19.062;2023-04-01T05:37:37;96805.13;;;9.20;81.60
53340;BME280;46212;50.258;19.062;2023-04-01T05:40:03;96811.59;;;9.17;81.46
53340;BME280;46212;50.258;19.062;2023-04-01T05:42:29;96810.38;;;9.18;81.69
53340;BME280;46212;50.258;19.062;2023-04-01T05:44:55;96815.19;;;9.23;81.21
53340;BME280;46212;50.258;19.062;2023-04-01T05:47:21;96809.16;;;9.24;81.13
53340;BME280;46212;50.258;19.062;2023-04-01T05:49:47;96807.19;;;9.25;81.23
53340;BME280;46212;50.258;19.062;2023-04-01T05:52:12;96812.44;;;9.23;81.41
53340;BME280;46212;50.258;19.062;2023-04-01T05:54:38;96810.16;;;9.21;81.15
53340;BME280;46212;50.258;19.062;2023-04-01T05:57:03;96810.16;;;9.21;81.32
53340;BME280;46212;50.258;19.062;2023-04-01T05:59:29;96808.84;;;9.17;81.40
53340;BME280;46212;50.258;19.062;2023-04-01T06:01:56;96812.19;;;9.26;80.87
53340;BME280;46212;50.258;19.062;2023-04-01T06:04:22;96817.47;;;9.30;80.69
53340;BME280;46212;50.258;19.062;2023-04-01T06:06:48;96820.72;;;9.28;80.91
53340;BME280;46212;50.258;19.062;2023-04-01T06:09:17;96821.94;;;9.22;80.85
53340;BME280;46212;50.258;19.062;2023-04-01T06:15:13;96830.19;;;9.22;80.93
53340;BME280;46212;50.258;19.062;2023-04-01T06:18:02;96827.47;;;9.27;81.05
53340;BME280;46212;50.258;19.062;2023-04-01T06:20:47;96830.25;;;9.33;80.51
53340;BME280;46212;50.258;19.062;2023-04-01T06:28:44;96842.25;;;9.30;80.94
53340;BME280;46212;50.258;19.062;2023-04-01T06:34:01;96835.84;;;9.44;80.55
53340;BME280;46212;50.258;19.062;2023-04-01T06:36:42;96837.38;;;9.45;80.24
53340;BME280;46212;50.258;19.062;2023-04-01T06:39:26;96834.91;;;9.52;80.26
53340;BME280;46212;50.258;19.062;2023-04-01T06:51:39;96829.97;;;9.68;80.69
53340;BME280;46212;50.258;19.062;2023-04-01T06:56:32;96843.88;;;9.90;79.35
53340;BME280;46212;50.258;19.062;2023-04-01T06:59:08;96840.91;;;9.93;79.32
53340;BME280;46212;50.258;19.062;2023-04-01T07:01:41;96837.94;;;10.02;79.26
53340;BME280;46212;50.258;19.062;2023-04-01T07:04:18;96833.50;;;10.16;78.35
53340;BME280;46212;50.258;19.062;2023-04-01T07:07:02;96845.09;;;10.31;77.78
53340;BME280;46212;50.258;19.062;2023-04-01T07:09:37;96838.34;;;10.27;77.80
53340;BME280;46212;50.258;19.062;2023-04-01T07:12:27;96848.13;;;10.33;77.39
53340;BME280;46212;50.258;19.062;2023-04-01T07:14:58;96836.81;;;10.26;78.72
53340;BME280;46212;50.258;19.062;2023-04-01T07:17:32;96848.81;;;10.17;78.86
53340;BME280;46212;50.258;19.062;2023-04-01T07:20:03;96855.09;;;10.18;78.62
53340;BME280;46212;50.258;19.062;2023-04-01T07:22:40;96848.59;;;10.26;78.89
53340;BME280;46212;50.258;19.062;2023-04-01T07:25:29;96850.31;;;10.18;78.79
53340;BME280;46212;50.258;19.062;2023-04-01T07:28:06;96860.53;;;10.12;79.75
53340;BME280;46212;50.258;19.062;2023-04-01T07:33:18;96861.25;;;10.49;79.19
53340;BME280;46212;50.258;19.062;2023-04-01T07:35:59;96843.69;;;10.52;79.18
53340;BME280;46212;50.258;19.062;2023-04-01T07:41:30;96860.72;;;10.45;79.23
53340;BME280;46212;50.258;19.062;2023-04-01T07:44:15;96865.69;;;10.36;79.68
53340;BME280;46212;50.258;19.062;2023-04-01T07:50:22;96879.81;;;10.06;81.87
53340;BME280;46212;50.258;19.062;2023-04-01T07:55:26;96870.25;;;9.96;82.87
53340;BME280;46212;50.258;19.062;2023-04-01T07:58:39;96873.22;;;9.87;83.38
53340;BME280;46212;50.258;19.062;2023-04-01T08:01:24;96884.03;;;9.96;83.20
53340;BME280;46212;50.258;19.062;2023-04-01T08:09:45;96892.31;;;10.50;82.67
53340;BME280;46212;50.258;19.062;2023-04-01T08:20:54;96887.16;;;10.74;80.18
53340;BME280;46212;50.258;19.062;2023-04-01T08:23:24;96888.44;;;10.95;78.92
53340;BME280;46212;50.258;19.062;2023-04-01T08:26:09;96885.19;;;10.97;78.94
53340;BME280;46212;50.258;19.062;2023-04-01T08:28:41;96887.22;;;11.18;77.84
53340;BME280;46212;50.258;19.062;2023-04-01T08:31:22;96888.75;;;11.31;77.72
53340;BME280;46212;50.258;19.062;2023-04-01T08:33:49;96883.97;;;11.31;77.33
53340;BME280;46212;50.258;19.062;2023-04-01T08:36:22;96880.94;;;11.12;77.50
53340;BME280;46212;50.258;19.062;2023-04-01T08:55:12;96881.44;;;11.05;80.32
53340;BME280;46212;50.258;19.062;2023-04-01T09:00:43;96886.97;;;11.22;79.15
53340;BME280;46212;50.258;19.062;2023-04-01T09:08:48;96887.22;;;11.18;80.05
53340;BME280;46212;50.258;19.062;2023-04-01T09:22:48;96881.94;;;11.43;79.94
53340;BME280;46212;50.258;19.062;2023-04-01T09:25:35;96886.72;;;11.64;79.64
53340;BME280;46212;50.258;19.062;2023-04-01T09:35:52;96885.47;;;11.27;79.72
53340;BME280;46212;50.258;19.062;2023-04-01T09:38:21;96892.47;;;11.05;81.57
53340;BME280;46212;50.258;19.062;2023-04-01T09:41:19;96904.47;;;10.75;83.14
53340;BME280;46212;50.258;19.062;2023-04-01T09:51:43;96895.00;;;11.59;82.18
53340;BME280;46212;50.258;19.062;2023-04-01T09:58:00;96891.72;;;11.99;80.67
53340;BME280;46212;50.258;19.062;2023-04-01T10:10:57;96898.75;;;12.00;77.80
53340;BME280;46212;50.258;19.062;2023-04-01T10:16:13;96897.72;;;12.20;75.37
53340;BME280;46212;50.258;19.062;2023-04-01T10:43:40;96909.09;;;11.66;77.72
53340;BME280;46212;50.258;19.062;2023-04-01T10:46:41;96897.28;;;11.66;78.78
53340;BME280;46212;50.258;19.062;2023-04-01T10:49:35;96905.53;;;11.99;77.97
53340;BME280;46212;50.258;19.062;2023-04-01T11:15:56;96910.44;;;12.51;73.75
53340;BME280;46212;50.258;19.062;2023-04-01T11:26:45;96917.38;;;12.68;71.56
53340;BME280;46212;50.258;19.062;2023-04-01T11:35:38;96902.38;;;13.40;67.83
53340;BME280;46212;50.258;19.062;2023-04-01T11:37:44;96901.44;;;13.62;67.08
53340;BME280;46212;50.258;19.062;2023-04-01T11:40:28;96900.28;;;13.81;65.56
53340;BME280;46212;50.258;19.062;2023-04-01T11:43:11;96890.06;;;13.95;65.92
53340;BME280;46212;50.258;19.062;2023-04-01T11:46:15;96891.03;;;14.46;65.65
53340;BME280;46212;50.258;19.062;2023-04-01T11:49:21;96887.06;;;14.42;64.71
53340;BME280;46212;50.258;19.062;2023-04-01T11:55:15;96887.66;;;13.80;64.64
53340;BME280;46212;50.258;19.062;2023-04-01T11:57:55;96901.63;;;13.40;66.05
53340;BME280;46212;50.258;19.062;2023-04-01T12:03:10;96913.06;;;12.78;67.42
53340;BME280;46212;50.258;19.062;2023-04-01T12:05:46;96905.69;;;12.46;70.34
53340;BME280;46212;50.258;19.062;2023-04-01T12:09:24;96916.50;;;12.44;72.92
53340;BME280;46212;50.258;19.062;2023-04-01T12:27:32;96903.06;;;11.57;78.66
53340;BME280;46212;50.258;19.062;2023-04-01T12:35:22;96907.66;;;12.51;72.69
53340;BME280;46212;50.258;19.062;2023-04-01T12:40:26;96913.19;;;12.51;72.08
53340;BME280;46212;50.258;19.062;2023-04-01T12:43:26;96913.69;;;12.55;71.24
53340;BME280;46212;50.258;19.062;2023-04-01T12:46:06;96909.22;;;12.35;70.31
53340;BME280;46212;50.258;19.062;2023-04-01T12:48:54;96922.50;;;12.53;70.80
53340;BME280;46212;50.258;19.062;2023-04-01T13:06:13;96926.34;;;12.28;69.16
53340;BME280;46212;50.258;19.062;2023-04-01T13:09:16;96930.41;;;12.21;69.17
53340;BME280;46212;50.258;19.062;2023-04-01T13:15:01;96933.69;;;12.09;70.14
53340;BME280;46212;50.258;19.062;2023-04-01T13:20:43;96928.38;;;12.22;69.46
53340;BME280;46212;50.258;19.062;2023-04-01T13:23:51;96926.06;;;12.37;69.02
53340;BME280;46212;50.258;19.062;2023-04-01T13:29:23;96946.44;;;12.51;68.54
53340;BME280;46212;50.258;19.062;2023-04-01T13:38:24;96940.38;;;12.52;68.83
53340;BME280;46212;50.258;19.062;2023-04-01T13:43:59;96937.34;;;12.56;69.15
53340;BME280;46212;50.258;19.062;2023-04-01T13:46:53;96947.97;;;12.41;70.31
53340;BME280;46212;50.258;19.062;2023-04-01T13:58:23;96971.88;;;11.22;76.41
53340;BME280;46212;50.258;19.062;2023-04-01T14:01:19;96970.81;;;10.97;79.32
53340;BME280;46212;50.258;19.062;2023-04-01T14:10:07;96967.63;;;12.32;76.13
53340;BME280;46212;50.258;19.062;2023-04-01T14:15:25;96969.88;;;12.27;75.77
53340;BME280;46212;50.258;19.062;2023-04-01T14:20:36;96961.41;;;11.98;78.51
53340;BME280;46212;50.258;19.062;2023-04-01T14:25:54;96969.69;;;11.81;79.97
53340;BME280;46212;50.258;19.062;2023-04-01T14:28:47;96968.69;;;11.84;80.13
53340;BME280;46212;50.258;19.062;2023-04-01T14:31:52;96967.19;;;11.94;79.89
53340;BME280;46212;50.258;19.062;2023-04-01T14:37:23;96979.47;;;12.21;79.51
53340;BME280;46212;50.258;19.062;2023-04-01T14:48:16;96984.28;;;11.87;79.53
53340;BME280;46212;50.258;19.062;2023-04-01T14:50:54;96992.06;;;11.72;78.71
53340;BME280;46212;50.258;19.062;2023-04-01T14:55:51;96979.72;;;11.51;78.98
53340;BME280;46212;50.258;19.062;2023-04-01T14:58:20;96977.97;;;11.59;79.21
53340;BME280;46212;50.258;19.062;2023-04-01T15:03:29;96991.81;;;11.81;78.71
53340;BME280;46212;50.258;19.062;2023-04-01T15:06:10;96992.34;;;11.85;79.42
53340;BME280;46212;50.258;19.062;2023-04-01T15:11:53;96991.31;;;11.99;78.33
53340;BME280;46212;50.258;19.062;2023-04-01T15:20:08;97001.63;;;12.04;78.71
53340;BME280;46212;50.258;19.062;2023-04-01T15:28:55;97007.38;;;11.67;76.83
53340;BME280;46212;50.258;19.062;2023-04-01T15:31:59;97011.66;;;11.57;77.77
53340;BME280;46212;50.258;19.062;2023-04-01T15:34:59;97016.41;;;11.57;78.34
53340;BME280;46212;50.258;19.062;2023-04-01T15:37:57;97021.69;;;11.55;78.24
53340;BME280;46212;50.258;19.062;2023-04-01T15:40:31;97014.63;;;11.43;78.88
53340;BME280;46212;50.258;19.062;2023-04-01T15:43:36;97029.66;;;11.25;78.61
53340;BME280;46212;50.258;19.062;2023-04-01T15:49:42;97029.69;;;11.42;79.06
53340;BME280;46212;50.258;19.062;2023-04-01T16:11:16;97028.75;;;10.86;80.77
53340;BME280;46212;50.258;19.062;2023-04-01T16:17:03;97037.50;;;10.73;80.61
53340;BME280;46212;50.258;19.062;2023-04-01T16:20:00;97040.38;;;10.53;81.56
53340;BME280;46212;50.258;19.062;2023-04-01T16:22:32;97051.91;;;10.46;82.33
53340;BME280;46212;50.258;19.062;2023-04-01T16:28:23;97053.81;;;10.34;84.30
53340;BME280;46212;50.258;19.062;2023-04-01T16:30:58;97044.72;;;10.23;85.09
53340;BME280;46212;50.258;19.062;2023-04-01T16:33:37;97047.38;;;10.11;85.12
53340;BME280;46212;50.258;19.062;2023-04-01T16:36:20;97045.09;;;10.10;85.67
53340;BME280;46212;50.258;19.062;2023-04-01T16:38:58;97045.47;;;10.23;84.82
53340;BME280;46212;50.258;19.062;2023-04-01T16:41:31;97049.97;;;10.21;84.24
53340;BME280;46212;50.258;19.062;2023-04-01T16:44:09;97051.94;;;10.15;84.67
53340;BME280;46212;50.258;19.062;2023-04-01T17:02:10;97094.59;;;9.93;85.55
53340;BME280;46212;50.258;19.062;2023-04-01T17:04:57;97101.63;;;9.94;85.27
53340;BME280;46212;50.258;19.062;2023-04-01T17:13:26;97115.88;;;9.93;85.46
53340;BME280;46212;50.258;19.062;2023-04-01T17:26:38;97132.44;;;9.93;85.76
53340;BME280;46212;50.258;19.062;2023-04-01T17:29:23;97131.84;;;9.83;86.07
53340;BME280;46212;50.258;19.062;2023-04-01T17:32:07;97134.38;;;9.87;86.37
53340;BME280;46212;50.258;19.062;2023-04-01T17:37:37;97152.25;;;9.91;85.61
53340;BME280;46212;50.258;19.062;2023-04-01T17:53:47;97161.25;;;9.66;88.17
53340;BME280;46212;50.258;19.062;2023-04-01T18:02:20;97176.47;;;9.61;88.56
53340;BME280;46212;50.258;19.062;2023-04-01T18:15:47;97181.56;;;9.69;88.75
53340;BME280;46212;50.258;19.062;2023-04-01T18:18:42;97193.56;;;9.66;88.82
53340;BME280;46212;50.258;19.062;2023-04-01T18:23:58;97211.13;;;9.68;89.01
53340;BME280;46212;50.258;19.062;2023-04-01T18:26:34;97203.81;;;9.85;88.59
53340;BME280;46212;50.258;19.062;2023-04-01T18:29:31;97199.13;;;9.71;89.93
53340;BME280;46212;50.258;19.062;2023-04-01T18:34:59;97206.63;;;9.71;89.83
53340;BME280;46212;50.258;19.062;2023-04-01T18:37:34;97209.41;;;9.71;89.81
53340;BME280;46212;50.258;19.062;2023-04-01T18:42:33;97219.53;;;9.79;89.92
53340;BME280;46212;50.258;19.062;2023-04-01T18:45:23;97223.38;;;9.87;89.58
53340;BME280;46212;50.258;19.062;2023-04-01T18:50:59;97224.09;;;9.62;90.60
53340;BME280;46212;50.258;19.062;2023-04-01T18:53:38;97226.91;;;9.68;90.71
53340;BME280;46212;50.258;19.062;2023-04-01T18:56:07;97232.63;;;9.64;91.16
53340;BME280;46212;50.258;19.062;2023-04-01T19:01:35;97231.88;;;9.64;91.43
53340;BME280;46212;50.258;19.062;2023-04-01T19:09:44;97240.69;;;9.68;91.74
53340;BME280;46212;50.258;19.062;2023-04-01T19:12:41;97250.75;;;9.50;92.21
53340;BME280;46212;50.258;19.062;2023-04-01T19:15:27;97243.44;;;9.47;93.13
53340;BME280;46212;50.258;19.062;2023-04-01T19:20:46;97254.31;;;9.36;93.67
53340;BME280;46212;50.258;19.062;2023-04-01T19:25:55;97258.06;;;9.53;91.28
53340;BME280;46212;50.258;19.062;2023-04-01T19:28:47;97260.69;;;9.63;89.79
53340;BME280;46212;50.258;19.062;2023-04-01T19:36:48;97269.28;;;9.50;89.01
53340;BME280;46212;50.258;19.062;2023-04-01T19:47:59;97272.56;;;9.34;89.70
53340;BME280;46212;50.258;19.062;2023-04-01T19:53:35;97281.47;;;9.08;91.38
53340;BME280;46212;50.258;19.062;2023-04-01T19:58:58;97292.97;;;8.92;92.24
53340;BME280;46212;50.258;19.062;2023-04-01T20:01:34;97287.00;;;8.94;92.27
53340;BME280;46212;50.258;19.062;2023-04-01T20:04:08;97289.53;;;8.97;92.60
53340;BME280;46212;50.258;19.062;2023-04-01T20:15:03;97299.03;;;8.96;92.83
53340;BME280;46212;50.258;19.062;2023-04-01T20:17:41;97306.53;;;8.96;93.56
53340;BME280;46212;50.258;19.062;2023-04-01T20:22:54;97301.78;;;9.11;93.71
53340;BME280;46212;50.258;19.062;2023-04-01T20:28:09;97298.94;;;9.05;94.16
53340;BME280;46212;50.258;19.062;2023-04-01T20:36:13;97316.75;;;9.25;92.38
53340;BME280;46212;50.258;19.062;2023-04-01T21:01:35;97323.81;;;9.26;93.29
53340;BME280;46212;50.258;19.062;2023-04-01T21:13:10;97337.78;;;8.93;94.82
53340;BME280;46212;50.258;19.062;2023-04-01T21:35:34;97348.31;;;8.65;97.83
53340;BME280;46212;50.258;19.062;2023-04-01T21:41:21;97365.59;;;8.95;96.91
53340;BME280;46212;50.258;19.062;2023-04-01T21:50:24;97364.44;;;8.72;98.37
53340;BME280;46212;50.258;19.062;2023-04-01T21:53:35;97369.84;;;8.67;99.00
53340;BME280;46212;50.258;19.062;2023-04-01T21:59:22;97363.78;;;8.77;98.31
53340;BME280;46212;50.258;19.062;2023-04-01T22:10:41;97370.91;;;8.98;97.22
53340;BME280;46212;50.258;19.062;2023-04-01T22:13:20;97371.38;;;8.82;97.26
53340;BME280;46212;50.258;19.062;2023-04-01T22:16:16;97371.09;;;8.95;97.52
53340;BME280;46212;50.258;19.062;2023-04-01T22:19:08;97378.31;;;8.92;97.96
53340;BME280;46212;50.258;19.062;2023-04-01T22:27:01;97376.97;;;8.59;99.25
53340;BME280;46212;50.258;19.062;2023-04-01T22:29:40;97383.50;;;8.61;99.72
53340;BME280;46212;50.258;19.062;2023-04-01T22:32:32;97383.00;;;8.48;99.95
53340;BME280;46212;50.258;19.062;2023-04-01T22:50:34;97382.50;;;8.88;98.91
53340;BME280;46212;50.258;19.062;2023-04-01T22:53:20;97390.94;;;8.99;98.23
53340;BME280;46212;50.258;19.062;2023-04-01T22:55:49;97395.31;;;8.91;97.88
53340;BME280;46212;50.258;19.062;2023-04-01T22:58:20;97400.63;;;8.94;98.13
53340;BME280;46212;50.258;19.062;2023-04-01T23:00:52;97396.16;;;8.82;98.50
53340;BME280;46212;50.258;19.062;2023-04-01T23:03:24;97404.41;;;8.82;98.92
53340;BME280;46212;50.258;19.062;2023-04-01T23:05:57;97406.13;;;8.94;98.53
53340;BME280;46212;50.258;19.062;2023-04-01T23:11:21;97403.94;;;8.98;97.94
53340;BME280;46212;50.258;19.062;2023-04-01T23:13:55;97400.34;;;9.07;97.88